sensor_id;sensor_type;location;lat;lon;timestamp;pressure;altitude;pressure_sealevel;temperature;humidity
66945;BME280;53853;51.982;5.928;2023-01-05T00:01:01;101422.56;;;11.27;75.48
66945;BME280;53853;51.982;5.928;2023-01-05T00:03:32;101429.06;;;11.24;75.74
66945;BME280;53853;51.982;5.928;2023-01-05T00:06:06;101443.63;;;11.20;75.91
66945;BME280;53853;51.982;5.928;2023-01-05T00:08:37;101443.91;;;11.17;75.97
66945;BME280;53853;51.982;5.928;2023-01-05T00:11:09;101434.34;;;11.15;76.13
66945;BME280;53853;51.982;5.928;2023-01-05T00:13:52;101424.28;;;11.09;76.22
66945;BME280;53853;51.982;5.928;2023-01-05T00:16:34;101429.75;;;11.07;76.35
66945;BME280;53853;51.982;5.928;2023-01-05T00:19:16;101431.00;;;11.03;76.58
66945;BME280;53853;51.982;5.928;2023-01-05T00:22:18;101431.41;;;10.98;76.66
66945;BME280;53853;51.982;5.928;2023-01-05T00:25:03;101435.16;;;10.96;76.84
66945;BME280;53853;51.982;5.928;2023-01-05T00:27:33;101431.94;;;10.92;76.88
66945;BME280;53853;51.982;5.928;2023-01-05T00:30:04;101434.88;;;10.89;77.01
66945;BME280;53853;51.982;5.928;2023-01-05T00:32:35;101442.88;;;10.89;77.10
66945;BME280;53853;51.982;5.928;2023-01-05T00:35:05;101451.03;;;10.87;77.23
66945;BME280;53853;51.982;5.928;2023-01-05T00:37:38;101432.63;;;10.84;77.34
66945;BME280;53853;51.982;5.928;2023-01-05T00:40:10;101440.06;;;10.81;77.36
66945;BME280;53853;51.982;5.928;2023-01-05T00:42:40;101434.88;;;10.79;77.54
66945;BME280;53853;51.982;5.928;2023-01-05T00:45:12;101438.63;;;10.77;77.51
66945;BME280;53853;51.982;5.928;2023-01-05T00:47:43;101434.31;;;10.76;77.81
66945;BME280;53853;51.982;5.928;2023-01-05T00:50:15;101428.25;;;10.74;77.88
66945;BME280;53853;51.982;5.928;2023-01-05T00:52:49;101425.72;;;10.72;77.75
66945;BME280;53853;51.982;5.928;2023-01-05T00:55:19;101433.00;;;10.70;77.79
66945;BME280;53853;51.982;5.928;2023-01-05T00:57:49;101436.22;;;10.64;77.88
66945;BME280;53853;51.982;5.928;2023-01-05T01:00:19;101434.69;;;10.61;78.04
66945;BME280;53853;51.982;5.928;2023-01-05T01:02:51;101443.91;;;10.57;78.05
66945;BME280;53853;51.982;5.928;2023-01-05T01:05:22;101453.00;;;10.55;78.33
66945;BME280;53853;51.982;5.928;2023-01-05T01:07:55;101459.34;;;10.54;78.58
66945;BME280;53853;51.982;5.928;2023-01-05T01:10:25;101458.66;;;10.51;78.62
66945;BME280;53853;51.982;5.928;2023-01-05T01:12:55;101463.97;;;10.51;78.82
66945;BME280;53853;51.982;5.928;2023-01-05T01:15:25;101468.56;;;10.49;78.81
66945;BME280;53853;51.982;5.928;2023-01-05T01:17:55;101466.91;;;10.48;78.92
66945;BME280;53853;51.982;5.928;2023-01-05T01:20:26;101468.56;;;10.49;79.08
66945;BME280;53853;51.982;5.928;2023-01-05T01:22:58;101466.19;;;10.46;79.21
66945;BME280;53853;51.982;5.928;2023-01-05T01:25:30;101466.44;;;10.43;79.37
66945;BME280;53853;51.982;5.928;2023-01-05T01:27:59;101461.25;;;10.42;79.70
66945;BME280;53853;51.982;5.928;2023-01-05T01:30:29;101473.72;;;10.41;79.73
66945;BME280;53853;51.982;5.928;2023-01-05T01:33:00;101475.44;;;10.42;79.80
66945;BME280;53853;51.982;5.928;2023-01-05T01:35:29;101480.50;;;10.45;79.85
66945;BME280;53853;51.982;5.928;2023-01-05T01:38:02;101490.75;;;10.50;79.96
66945;BME280;53853;51.982;5.928;2023-01-05T01:40:37;101494.25;;;10.50;79.77
66945;BME280;53853;51.982;5.928;2023-01-05T01:43:15;101498.50;;;10.53;79.76
66945;BME280;53853;51.982;5.928;2023-01-05T01:45:45;101497.34;;;10.56;79.80
66945;BME280;53853;51.982;5.928;2023-01-05T01:48:17;101505.09;;;10.59;79.81
66945;BME280;53853;51.982;5.928;2023-01-05T01:50:50;101500.47;;;10.61;79.55
66945;BME280;53853;51.982;5.928;2023-01-05T01:53:26;101507.22;;;10.65;79.67
66945;BME280;53853;51.982;5.928;2023-01-05T01:55:59;101506.25;;;10.66;79.65
66945;BME280;53853;51.982;5.928;2023-01-05T01:58:31;101508.66;;;10.69;79.40
66945;BME280;53853;51.982;5.928;2023-01-05T02:01:02;101506.81;;;10.69;79.53
66945;BME280;53853;51.982;5.928;2023-01-05T02:03:32;101508.22;;;10.74;79.30
66945;BME280;53853;51.982;5.928;2023-01-05T02:06:02;101511.75;;;10.74;79.34
66945;BME280;53853;51.982;5.928;2023-01-05T02:08:35;101510.63;;;10.77;79.21
66945;BME280;53853;51.982;5.928;2023-01-05T02:11:29;101519.22;;;10.80;78.99
66945;BME280;53853;51.982;5.928;2023-01-05T02:14:17;101513.75;;;10.82;79.02
66945;BME280;53853;51.982;5.928;2023-01-05T02:16:58;101518.81;;;10.85;78.69
66945;BME280;53853;51.982;5.928;2023-01-05T02:20:11;101511.50;;;10.87;78.52
66945;BME280;53853;51.982;5.928;2023-01-05T02:32:14;101510.69;;;10.86;78.52
66945;BME280;53853;51.982;5.928;2023-01-05T02:34:55;101507.88;;;10.88;78.32
66945;BME280;53853;51.982;5.928;2023-01-05T02:37:31;101514.03;;;10.88;78.49
66945;BME280;53853;51.982;5.928;2023-01-05T02:40:05;101513.09;;;10.90;78.40
66945;BME280;53853;51.982;5.928;2023-01-05T02:42:39;101520.22;;;10.89;78.26
66945;BME280;53853;51.982;5.928;2023-01-05T02:45:15;101515.88;;;10.88;77.86
66945;BME280;53853;51.982;5.928;2023-01-05T02:47:48;101517.69;;;10.87;77.93
66945;BME280;53853;51.982;5.928;2023-01-05T02:50:23;101519.50;;;10.87;78.20
66945;BME280;53853;51.982;5.928;2023-01-05T02:52:59;101523.00;;;10.87;78.26
66945;BME280;53853;51.982;5.928;2023-01-05T02:55:34;101521.91;;;10.90;78.00
66945;BME280;53853;51.982;5.928;2023-01-05T02:58:10;101525.53;;;10.89;78.22
66945;BME280;53853;51.982;5.928;2023-01-05T03:00:45;101527.81;;;10.94;78.14
66945;BME280;53853;51.982;5.928;2023-01-05T03:03:27;101526.84;;;10.95;77.83
66945;BME280;53853;51.982;5.928;2023-01-05T03:06:05;101527.69;;;10.95;77.93
66945;BME280;53853;51.982;5.928;2023-01-05T03:08:46;101529.50;;;10.95;78.06
66945;BME280;53853;51.982;5.928;2023-01-05T03:11:18;101534.56;;;10.98;78.13
66945;BME280;53853;51.982;5.928;2023-01-05T03:14:07;101536.09;;;11.00;78.05
66945;BME280;53853;51.982;5.928;2023-01-05T03:16:40;101530.63;;;11.02;78.04
66945;BME280;53853;51.982;5.928;2023-01-05T03:19:15;101530.38;;;11.05;77.88
66945;BME280;53853;51.982;5.928;2023-01-05T03:22:10;101531.09;;;11.07;77.39
66945;BME280;53853;51.982;5.928;2023-01-05T03:24:53;101536.44;;;11.07;77.48
66945;BME280;53853;51.982;5.928;2023-01-05T03:27:40;101533.16;;;11.03;77.38
66945;BME280;53853;51.982;5.928;2023-01-05T03:30:29;101530.63;;;11.02;77.46
66945;BME280;53853;51.982;5.928;2023-01-05T03:33:19;101532.47;;;11.01;77.72
66945;BME280;53853;51.982;5.928;2023-01-05T03:36:11;101530.50;;;11.03;77.71
66945;BME280;53853;51.982;5.928;2023-01-05T03:38:47;101532.06;;;11.06;77.73
66945;BME280;53853;51.982;5.928;2023-01-05T03:41:20;101529.13;;;11.09;77.62
66945;BME280;53853;51.982;5.928;2023-01-05T03:43:53;101537.13;;;11.09;77.47
66945;BME280;53853;51.982;5.928;2023-01-05T03:46:24;101537.53;;;11.04;77.42
66945;BME280;53853;51.982;5.928;2023-01-05T03:48:56;101534.03;;;11.04;77.43
66945;BME280;53853;51.982;5.928;2023-01-05T03:51:29;101539.09;;;11.07;77.67
66945;BME280;53853;51.982;5.928;2023-01-05T03:53:59;101527.56;;;11.06;77.13
66945;BME280;53853;51.982;5.928;2023-01-05T03:56:31;101534.72;;;11.06;77.16
66945;BME280;53853;51.982;5.928;2023-01-05T03:59:01;101537.41;;;11.06;77.43
66945;BME280;53853;51.982;5.928;2023-01-05T04:01:32;101540.78;;;11.08;77.42
66945;BME280;53853;51.982;5.928;2023-01-05T04:04:03;101537.13;;;11.09;76.89
66945;BME280;53853;51.982;5.928;2023-01-05T04:06:36;101533.75;;;11.07;76.93
66945;BME280;53853;51.982;5.928;2023-01-05T04:09:08;101541.63;;;11.09;77.04
66945;BME280;53853;51.982;5.928;2023-01-05T04:11:39;101536.13;;;11.10;77.04
66945;BME280;53853;51.982;5.928;2023-01-05T04:14:09;101533.47;;;11.10;76.85
66945;BME280;53853;51.982;5.928;2023-01-05T04:16:39;101537.84;;;11.11;77.03
66945;BME280;53853;51.982;5.928;2023-01-05T04:19:15;101544.72;;;11.14;77.07
66945;BME280;53853;51.982;5.928;2023-01-05T04:21:48;101543.72;;;11.15;77.10
66945;BME280;53853;51.982;5.928;2023-01-05T04:24:18;101547.25;;;11.15;76.90
66945;BME280;53853;51.982;5.928;2023-01-05T04:26:48;101534.88;;;11.14;76.84
66945;BME280;53853;51.982;5.928;2023-01-05T04:29:22;101544.88;;;11.12;76.69
66945;BME280;53853;51.982;5.928;2023-01-05T04:31:54;101549.47;;;11.10;77.04
66945;BME280;53853;51.982;5.928;2023-01-05T04:34:24;101547.53;;;11.12;76.81
66945;BME280;53853;51.982;5.928;2023-01-05T04:36:59;101555.41;;;11.14;76.49
66945;BME280;53853;51.982;5.928;2023-01-05T04:39:31;101551.03;;;11.13;76.60
66945;BME280;53853;51.982;5.928;2023-01-05T04:42:02;101554.66;;;11.12;76.56
66945;BME280;53853;51.982;5.928;2023-01-05T04:44:34;101551.31;;;11.10;76.74
66945;BME280;53853;51.982;5.928;2023-01-05T04:47:06;101547.81;;;11.09;76.83
66945;BME280;53853;51.982;5.928;2023-01-05T04:49:40;101560.13;;;11.10;77.00
66945;BME280;53853;51.982;5.928;2023-01-05T04:52:14;101557.47;;;11.10;76.96
66945;BME280;53853;51.982;5.928;2023-01-05T04:54:44;101569.00;;;11.11;77.17
66945;BME280;53853;51.982;5.928;2023-01-05T04:57:15;101573.47;;;11.10;77.31
66945;BME280;53853;51.982;5.928;2023-01-05T04:59:45;101566.34;;;11.11;77.46
66945;BME280;53853;51.982;5.928;2023-01-05T05:02:15;101567.19;;;11.11;77.27
66945;BME280;53853;51.982;5.928;2023-01-05T05:04:45;101572.66;;;11.10;77.37
66945;BME280;53853;51.982;5.928;2023-01-05T05:07:19;101572.66;;;11.10;77.52
66945;BME280;53853;51.982;5.928;2023-01-05T05:09:50;101570.81;;;11.10;77.79
66945;BME280;53853;51.982;5.928;2023-01-05T05:12:20;101570.81;;;11.10;77.92
66945;BME280;53853;51.982;5.928;2023-01-05T05:14:52;101574.47;;;11.09;78.06
66945;BME280;53853;51.982;5.928;2023-01-05T05:17:24;101583.44;;;11.08;78.15
66945;BME280;53853;51.982;5.928;2023-01-05T05:19:54;101586.97;;;11.09;78.37
66945;BME280;53853;51.982;5.928;2023-01-05T05:22:26;101583.19;;;11.11;78.39
66945;BME280;53853;51.982;5.928;2023-01-05T05:24:59;101590.22;;;11.12;78.20
66945;BME280;53853;51.982;5.928;2023-01-05T05:27:29;101595.69;;;11.11;78.02
66945;BME280;53853;51.982;5.928;2023-01-05T05:29:59;101599.19;;;11.11;78.24
66945;BME280;53853;51.982;5.928;2023-01-05T05:32:30;101603.56;;;11.12;78.28
66945;BME280;53853;51.982;5.928;2023-01-05T05:34:59;101603.41;;;11.14;78.24
66945;BME280;53853;51.982;5.928;2023-01-05T05:37:32;101604.00;;;11.17;78.22
66945;BME280;53853;51.982;5.928;2023-01-05T05:40:02;101605.41;;;11.21;77.98
66945;BME280;53853;51.982;5.928;2023-01-05T05:42:32;101611.44;;;11.23;77.81
66945;BME280;53853;51.982;5.928;2023-01-05T05:45:03;101616.66;;;11.25;77.71
66945;BME280;53853;51.982;5.928;2023-01-05T05:47:33;101625.50;;;11.26;77.77
66945;BME280;53853;51.982;5.928;2023-01-05T05:50:04;101623.69;;;11.26;77.34
66945;BME280;53853;51.982;5.928;2023-01-05T05:52:36;101629.28;;;11.23;77.46
66945;BME280;53853;51.982;5.928;2023-01-05T05:55:08;101625.06;;;11.20;77.57
66945;BME280;53853;51.982;5.928;2023-01-05T05:57:38;101636.44;;;11.22;77.61
66945;BME280;53853;51.982;5.928;2023-01-05T06:00:09;101641.63;;;11.24;77.43
66945;BME280;53853;51.982;5.928;2023-01-05T06:02:39;101641.50;;;11.26;77.40
66945;BME280;53853;51.982;5.928;2023-01-05T06:05:09;101634.50;;;11.24;77.39
66945;BME280;53853;51.982;5.928;2023-01-05T06:07:42;101638.84;;;11.26;77.39
66945;BME280;53853;51.982;5.928;2023-01-05T06:10:12;101638.84;;;11.26;77.44
66945;BME280;53853;51.982;5.928;2023-01-05T06:12:42;101645.03;;;11.26;77.59
66945;BME280;53853;51.982;5.928;2023-01-05T06:15:12;101641.50;;;11.26;77.52
66945;BME280;53853;51.982;5.928;2023-01-05T06:17:42;101651.22;;;11.27;77.37
66945;BME280;53853;51.982;5.928;2023-01-05T06:20:12;101653.88;;;11.27;77.54
66945;BME280;53853;51.982;5.928;2023-01-05T06:22:44;101655.72;;;11.26;77.58
66945;BME280;53853;51.982;5.928;2023-01-05T06:25:14;101654.56;;;11.29;77.75
66945;BME280;53853;51.982;5.928;2023-01-05T06:27:44;101665.94;;;11.31;77.51
66945;BME280;53853;51.982;5.928;2023-01-05T06:30:14;101668.75;;;11.29;77.66
66945;BME280;53853;51.982;5.928;2023-01-05T06:32:44;101671.28;;;11.31;77.63
66945;BME280;53853;51.982;5.928;2023-01-05T06:35:14;101685.63;;;11.30;77.50
66945;BME280;53853;51.982;5.928;2023-01-05T06:37:47;101683.78;;;11.30;77.59
66945;BME280;53853;51.982;5.928;2023-01-05T06:40:17;101680.56;;;11.27;77.51
66945;BME280;53853;51.982;5.928;2023-01-05T06:42:47;101684.94;;;11.28;77.65
66945;BME280;53853;51.982;5.928;2023-01-05T06:45:17;101687.31;;;11.31;77.72
66945;BME280;53853;51.982;5.928;2023-01-05T06:47:47;101690.09;;;11.29;77.73
66945;BME280;53853;51.982;5.928;2023-01-05T06:50:17;101692.63;;;11.31;nan
66945;BME280;53853;51.982;5.928;2023-01-05T06:52:49;101697.72;;;11.34;77.61
66945;BME280;53853;51.982;5.928;2023-01-05T06:55:19;101702.91;;;11.35;77.84
66945;BME280;53853;51.982;5.928;2023-01-05T06:57:50;101718.78;;;11.37;77.69
66945;BME280;53853;51.982;5.928;2023-01-05T07:00:20;101708.25;;;11.35;77.99
66945;BME280;53853;51.982;5.928;2023-01-05T07:02:50;101700.38;;;11.34;78.00
66945;BME280;53853;51.982;5.928;2023-01-05T07:05:20;101700.38;;;11.34;78.22
66945;BME280;53853;51.982;5.928;2023-01-05T07:07:53;101695.31;;;11.31;78.19
66945;BME280;53853;51.982;5.928;2023-01-05T07:10:23;101705.97;;;11.31;78.31
66945;BME280;53853;51.982;5.928;2023-01-05T07:12:53;101717.53;;;11.31;78.24
66945;BME280;53853;51.982;5.928;2023-01-05T07:15:23;101713.03;;;11.32;78.48
66945;BME280;53853;51.982;5.928;2023-01-05T07:17:53;101721.72;;;11.34;78.46
66945;BME280;53853;51.982;5.928;2023-01-05T07:20:23;101725.53;;;11.31;78.41
66945;BME280;53853;51.982;5.928;2023-01-05T07:22:55;101718.47;;;11.30;78.52
66945;BME280;53853;51.982;5.928;2023-01-05T07:25:25;101719.19;;;11.32;78.47
66945;BME280;53853;51.982;5.928;2023-01-05T07:27:57;101722.00;;;11.31;78.45
66945;BME280;53853;51.982;5.928;2023-01-05T07:30:27;101726.34;;;11.32;78.49
66945;BME280;53853;51.982;5.928;2023-01-05T07:32:57;101729.59;;;11.35;78.55
66945;BME280;53853;51.982;5.928;2023-01-05T07:35:28;101722.31;;;11.37;78.38
66945;BME280;53853;51.982;5.928;2023-01-05T07:38:00;101725.13;;;11.36;78.25
66945;BME280;53853;51.982;5.928;2023-01-05T07:40:30;101726.94;;;11.35;78.06
66945;BME280;53853;51.982;5.928;2023-01-05T07:43:00;101727.06;;;11.34;78.09
66945;BME280;53853;51.982;5.928;2023-01-05T07:45:30;101737.03;;;11.32;78.21
66945;BME280;53853;51.982;5.928;2023-01-05T07:48:00;101734.38;;;11.32;78.24
66945;BME280;53853;51.982;5.928;2023-01-05T07:50:30;101734.38;;;11.32;78.27
66945;BME280;53853;51.982;5.928;2023-01-05T07:53:03;101732.66;;;11.31;78.24
66945;BME280;53853;51.982;5.928;2023-01-05T07:55:33;101739.56;;;11.33;78.33
66945;BME280;53853;51.982;5.928;2023-01-05T07:58:03;101748.28;;;11.35;78.27
66945;BME280;53853;51.982;5.928;2023-01-05T08:00:33;101755.19;;;11.38;78.23
66945;BME280;53853;51.982;5.928;2023-01-05T08:03:03;101749.59;;;11.41;78.19
66945;BME280;53853;51.982;5.928;2023-01-05T08:05:34;101757.47;;;11.42;77.70
66945;BME280;53853;51.982;5.928;2023-01-05T08:08:06;101765.59;;;11.41;77.75
66945;BME280;53853;51.982;5.928;2023-01-05T08:10:38;101765.47;;;11.42;77.42
66945;BME280;53853;51.982;5.928;2023-01-05T08:13:09;101765.59;;;11.41;77.46
66945;BME280;53853;51.982;5.928;2023-01-05T08:15:53;101767.56;;;11.39;77.48
66945;BME280;53853;51.982;5.928;2023-01-05T08:18:23;101768.53;;;11.38;77.59
66945;BME280;53853;51.982;5.928;2023-01-05T08:20:55;101765.88;;;11.38;77.68
66945;BME280;53853;51.982;5.928;2023-01-05T08:23:28;101769.50;;;11.37;77.67
66945;BME280;53853;51.982;5.928;2023-01-05T08:26:03;101775.84;;;11.36;77.53
66945;BME280;53853;51.982;5.928;2023-01-05T08:28:35;101781.03;;;11.37;77.68
66945;BME280;53853;51.982;5.928;2023-01-05T08:31:10;101785.25;;;11.40;77.58
66945;BME280;53853;51.982;5.928;2023-01-05T08:33:40;101799.34;;;11.42;77.18
66945;BME280;53853;51.982;5.928;2023-01-05T08:36:12;101791.19;;;11.44;76.98
66945;BME280;53853;51.982;5.928;2023-01-05T08:38:45;101790.19;;;11.45;77.25
66945;BME280;53853;51.982;5.928;2023-01-05T08:41:16;101797.94;;;11.48;77.09
66945;BME280;53853;51.982;5.928;2023-01-05T08:43:49;101797.25;;;11.46;76.69
66945;BME280;53853;51.982;5.928;2023-01-05T08:46:21;101803.66;;;11.43;76.82
66945;BME280;53853;51.982;5.928;2023-01-05T08:48:53;101809.75;;;11.45;77.20
66945;BME280;53853;51.982;5.928;2023-01-05T08:51:23;101814.09;;;11.46;76.51
66945;BME280;53853;51.982;5.928;2023-01-05T08:53:56;101814.22;;;11.45;76.60
66945;BME280;53853;51.982;5.928;2023-01-05T08:56:27;101810.59;;;11.46;76.94
66945;BME280;53853;51.982;5.928;2023-01-05T08:58:57;101818.47;;;11.47;76.82
66945;BME280;53853;51.982;5.928;2023-01-05T09:01:27;101821.69;;;11.51;76.86
66945;BME280;53853;51.982;5.928;2023-01-05T09:03:57;101825.94;;;11.53;76.59
66945;BME280;53853;51.982;5.928;2023-01-05T09:06:27;101833.69;;;11.56;76.72
66945;BME280;53853;51.982;5.928;2023-01-05T09:09:00;101838.44;;;11.53;75.99
66945;BME280;53853;51.982;5.928;2023-01-05T09:11:30;101842.94;;;11.52;76.25
66945;BME280;53853;51.982;5.928;2023-01-05T09:14:00;101841.22;;;11.51;76.29
66945;BME280;53853;51.982;5.928;2023-01-05T09:16:33;101854.44;;;11.53;76.08
66945;BME280;53853;51.982;5.928;2023-01-05T09:19:03;101857.25;;;11.51;75.93
66945;BME280;53853;51.982;5.928;2023-01-05T09:21:33;101859.78;;;11.53;76.01
66945;BME280;53853;51.982;5.928;2023-01-05T09:24:08;101859.19;;;11.49;75.69
66945;BME280;53853;51.982;5.928;2023-01-05T09:26:40;101860.78;;;11.52;75.79
66945;BME280;53853;51.982;5.928;2023-01-05T09:29:10;101856.28;;;11.52;75.89
66945;BME280;53853;51.982;5.928;2023-01-05T09:31:41;101862.44;;;11.53;75.50
66945;BME280;53853;51.982;5.928;2023-01-05T09:34:11;101867.66;;;11.54;75.82
66945;BME280;53853;51.982;5.928;2023-01-05T09:36:41;101869.38;;;11.55;75.65
66945;BME280;53853;51.982;5.928;2023-01-05T09:39:14;101870.81;;;11.59;75.46
66945;BME280;53853;51.982;5.928;2023-01-05T09:41:46;101877.69;;;11.62;75.40
66945;BME280;53853;51.982;5.928;2023-01-05T09:44:26;101887.41;;;11.63;75.29
66945;BME280;53853;51.982;5.928;2023-01-05T09:47:00;101883.03;;;11.62;75.13
66945;BME280;53853;51.982;5.928;2023-01-05T09:49:33;101887.41;;;11.63;75.17
66945;BME280;53853;51.982;5.928;2023-01-05T09:52:05;101895.16;;;11.66;75.33
66945;BME280;53853;51.982;5.928;2023-01-05T09:54:40;101891.47;;;11.67;74.87
66945;BME280;53853;51.982;5.928;2023-01-05T09:57:15;101895.03;;;11.68;74.81
66945;BME280;53853;51.982;5.928;2023-01-05T09:59:48;101901.19;;;11.68;74.97
66945;BME280;53853;51.982;5.928;2023-01-05T10:02:31;101908.25;;;11.69;74.98
66945;BME280;53853;51.982;5.928;2023-01-05T10:05:03;101907.97;;;11.72;75.15
66945;BME280;53853;51.982;5.928;2023-01-05T10:07:41;101906.84;;;11.75;74.49
66945;BME280;53853;51.982;5.928;2023-01-05T10:10:26;101914.03;;;11.74;74.18
66945;BME280;53853;51.982;5.928;2023-01-05T10:13:02;101909.41;;;11.76;74.67
66945;BME280;53853;51.982;5.928;2023-01-05T10:15:37;101917.00;;;11.81;75.02
66945;BME280;53853;51.982;5.928;2023-01-05T10:18:11;101919.16;;;11.87;74.45
66945;BME280;53853;51.982;5.928;2023-01-05T10:21:02;101919.75;;;11.91;73.99
66945;BME280;53853;51.982;5.928;2023-01-05T10:23:50;101918.91;;;11.90;73.68
66945;BME280;53853;51.982;5.928;2023-01-05T10:26:30;101922.66;;;11.88;73.88
66945;BME280;53853;51.982;5.928;2023-01-05T10:29:08;101916.97;;;11.92;74.42
66945;BME280;53853;51.982;5.928;2023-01-05T10:31:45;101924.72;;;11.95;74.34
66945;BME280;53853;51.982;5.928;2023-01-05T10:34:20;101922.53;;;12.01;73.71
66945;BME280;53853;51.982;5.928;2023-01-05T10:37:04;101918.72;;;12.03;73.76
66945;BME280;53853;51.982;5.928;2023-01-05T10:40:00;101920.81;;;12.00;73.55
66945;BME280;53853;51.982;5.928;2023-01-05T10:42:46;101931.50;;;12.00;73.82
66945;BME280;53853;51.982;5.928;2023-01-05T10:45:19;101934.31;;;11.98;73.54
66945;BME280;53853;51.982;5.928;2023-01-05T10:47:50;101938.06;;;11.95;73.73
66945;BME280;53853;51.982;5.928;2023-01-05T10:50:32;101933.72;;;11.94;74.01
66945;BME280;53853;51.982;5.928;2023-01-05T10:53:09;101926.28;;;11.98;74.29
66945;BME280;53853;51.982;5.928;2023-01-05T10:55:47;101938.81;;;11.98;73.77
66945;BME280;53853;51.982;5.928;2023-01-05T10:58:26;101934.03;;;12.01;74.04
66945;BME280;53853;51.982;5.928;2023-01-05T11:00:58;101930.97;;;12.06;73.93
66945;BME280;53853;51.982;5.928;2023-01-05T11:03:34;101925.38;;;12.09;73.66
66945;BME280;53853;51.982;5.928;2023-01-05T11:06:06;101916.47;;;12.08;73.43
66945;BME280;53853;51.982;5.928;2023-01-05T11:08:37;101919.91;;;12.10;73.75
66945;BME280;53853;51.982;5.928;2023-01-05T11:11:07;101928.75;;;12.11;73.64
66945;BME280;53853;51.982;5.928;2023-01-05T11:13:46;101919.91;;;12.10;73.46
66945;BME280;53853;51.982;5.928;2023-01-05T11:16:18;101923.41;;;12.11;73.85
66945;BME280;53853;51.982;5.928;2023-01-05T11:18:52;101913.16;;;12.16;74.01
66945;BME280;53853;51.982;5.928;2023-01-05T11:21:23;101917.00;;;12.23;74.16
66945;BME280;53853;51.982;5.928;2023-01-05T11:23:56;101913.91;;;12.28;73.27
66945;BME280;53853;51.982;5.928;2023-01-05T11:26:32;101913.91;;;12.28;72.95
66945;BME280;53853;51.982;5.928;2023-01-05T11:29:11;101921.81;;;12.29;73.49
66945;BME280;53853;51.982;5.928;2023-01-05T11:31:50;101918.88;;;12.32;72.68
66945;BME280;53853;51.982;5.928;2023-01-05T11:34:36;101916.91;;;12.35;72.69
66945;BME280;53853;51.982;5.928;2023-01-05T11:37:19;101912.38;;;12.35;72.65
66945;BME280;53853;51.982;5.928;2023-01-05T11:39:53;101914.09;;;12.36;72.86
66945;BME280;53853;51.982;5.928;2023-01-05T11:42:31;101921.84;;;12.39;72.67
66945;BME280;53853;51.982;5.928;2023-01-05T11:45:15;101914.38;;;12.43;72.90
66945;BME280;53853;51.982;5.928;2023-01-05T11:47:48;101920.44;;;12.45;72.89
66945;BME280;53853;51.982;5.928;2023-01-05T11:50:21;101912.28;;;12.46;72.47
66945;BME280;53853;51.982;5.928;2023-01-05T11:52:53;101922.13;;;12.46;72.38
66945;BME280;53853;51.982;5.928;2023-01-05T11:55:30;101917.50;;;12.48;72.53
66945;BME280;53853;51.982;5.928;2023-01-05T11:58:18;101921.31;;;12.55;73.06
66945;BME280;53853;51.982;5.928;2023-01-05T12:03:57;101922.75;;;12.59;72.69
66945;BME280;53853;51.982;5.928;2023-01-05T12:06:50;101920.66;;;12.63;72.82
66945;BME280;53853;51.982;5.928;2023-01-05T12:09:25;101922.19;;;12.65;73.04
66945;BME280;53853;51.982;5.928;2023-01-05T12:12:05;101917.69;;;12.66;72.09
66945;BME280;53853;51.982;5.928;2023-01-05T12:17:51;101918.81;;;12.73;72.04
66945;BME280;53853;51.982;5.928;2023-01-05T12:20:48;101918.25;;;12.69;71.46
66945;BME280;53853;51.982;5.928;2023-01-05T12:23:48;101914.16;;;12.65;71.03
66945;BME280;53853;51.982;5.928;2023-01-05T12:26:24;101924.72;;;12.67;71.67
66945;BME280;53853;51.982;5.928;2023-01-05T12:29:17;101914.63;;;12.71;70.95
66945;BME280;53853;51.982;5.928;2023-01-05T12:32:05;101902.50;;;12.76;71.48
66945;BME280;53853;51.982;5.928;2023-01-05T12:35:01;101919.28;;;12.88;71.25
66945;BME280;53853;51.982;5.928;2023-01-05T12:37:41;101913.94;;;12.98;71.00
66945;BME280;53853;51.982;5.928;2023-01-05T12:40:39;101915.47;;;13.00;70.22
66945;BME280;53853;51.982;5.928;2023-01-05T12:43:19;101913.25;;;13.05;70.48
66945;BME280;53853;51.982;5.928;2023-01-05T12:46:04;101916.50;;;13.09;69.67
66945;BME280;53853;51.982;5.928;2023-01-05T12:48:38;101918.06;;;13.12;70.00
66945;BME280;53853;51.982;5.928;2023-01-05T12:51:17;101909.75;;;13.15;69.51
66945;BME280;53853;51.982;5.928;2023-01-05T12:53:55;101910.03;;;13.21;69.49
66945;BME280;53853;51.982;5.928;2023-01-05T12:56:32;101910.59;;;13.25;68.87
66945;BME280;53853;51.982;5.928;2023-01-05T12:59:15;101903.81;;;13.21;69.08
66945;BME280;53853;51.982;5.928;2023-01-05T13:01:51;101900.72;;;13.16;68.79
66945;BME280;53853;51.982;5.928;2023-01-05T13:04:37;101908.03;;;13.14;69.25
66945;BME280;53853;51.982;5.928;2023-01-05T13:07:18;101915.38;;;13.12;69.10
66945;BME280;53853;51.982;5.928;2023-01-05T13:09:56;101910.44;;;13.07;68.38
66945;BME280;53853;51.982;5.928;2023-01-05T13:12:26;101904.78;;;13.00;68.64
66945;BME280;53853;51.982;5.928;2023-01-05T13:15:04;101911.13;;;12.99;69.23
66945;BME280;53853;51.982;5.928;2023-01-05T13:17:37;101916.06;;;13.04;69.38
66945;BME280;53853;51.982;5.928;2023-01-05T13:20:26;101913.41;;;13.14;69.49
66945;BME280;53853;51.982;5.928;2023-01-05T13:23:05;101910.03;;;13.21;68.13
66945;BME280;53853;51.982;5.928;2023-01-05T13:25:47;101908.19;;;13.22;67.64
66945;BME280;53853;51.982;5.928;2023-01-05T13:28:20;101915.09;;;13.15;67.64
66945;BME280;53853;51.982;5.928;2023-01-05T13:31:02;101911.69;;;13.13;67.93
66945;BME280;53853;51.982;5.928;2023-01-05T13:33:45;101914.38;;;13.13;68.24
66945;BME280;53853;51.982;5.928;2023-01-05T13:36:28;101908.19;;;13.12;68.73
66945;BME280;53853;51.982;5.928;2023-01-05T13:39:30;101916.22;;;13.12;69.11
66945;BME280;53853;51.982;5.928;2023-01-05T13:42:22;101911.16;;;13.09;69.25
66945;BME280;53853;51.982;5.928;2023-01-05T13:45:17;101920.69;;;13.02;69.16